createdAt,value
2022-10-31T00:01:33.794Z,10.80
2022-10-31T00:04:34.679Z,10.70
2022-10-31T00:07:35.511Z,10.50
2022-10-31T00:10:40.072Z,10.50
2022-10-31T00:13:41.056Z,10.60
2022-10-31T00:16:42.757Z,10.50
2022-10-31T00:19:43.795Z,10.60
2022-10-31T00:22:44.601Z,10.50
2022-10-31T00:25:45.453Z,10.40
2022-10-31T00:28:46.576Z,10.00
2022-10-31T00:31:47.844Z,9.90
2022-10-31T00:34:48.477Z,9.70
2022-10-31T00:37:49.352Z,9.60
2022-10-31T00:40:50.489Z,9.50
2022-10-31T00:43:51.944Z,9.60
2022-10-31T00:46:53.139Z,9.30
2022-10-31T00:49:56.249Z,9.30
2022-10-31T00:52:57.981Z,9.20
2022-10-31T00:55:58.928Z,9.40
2022-10-31T00:59:00.113Z,9.40
2022-10-31T01:02:00.965Z,9.30
2022-10-31T01:05:02.115Z,9.20
2022-10-31T01:08:03.434Z,9.00
2022-10-31T01:11:15.092Z,8.80
2022-10-31T01:14:16.044Z,8.60
2022-10-31T01:17:16.688Z,8.30
2022-10-31T01:20:18.947Z,8.40
2022-10-31T01:23:19.948Z,8.40
2022-10-31T01:26:28.191Z,8.30
2022-10-31T01:29:28.973Z,8.20
2022-10-31T01:32:30.023Z,8.20
2022-10-31T01:35:31.566Z,8.10
2022-10-31T01:38:32.292Z,8.10
2022-10-31T01:41:37.660Z,8.00
2022-10-31T01:44:38.871Z,7.90
2022-10-31T01:47:47.647Z,7.80
2022-10-31T01:50:54.779Z,7.80
2022-10-31T01:54:01.396Z,7.80
2022-10-31T01:57:06.910Z,7.80
2022-10-31T02:00:11.751Z,8.00
2022-10-31T02:03:17.077Z,7.90
2022-10-31T02:06:47.893Z,7.90
2022-10-31T02:09:51.316Z,7.90
2022-10-31T02:12:58.567Z,7.80
2022-10-31T02:16:00.227Z,7.90
2022-10-31T02:19:02.180Z,7.90
2022-10-31T02:22:29.061Z,7.80
2022-10-31T02:26:23.785Z,7.90
2022-10-31T02:30:02.527Z,7.70
2022-10-31T02:33:19.290Z,7.50
2022-10-31T02:36:35.042Z,7.50
2022-10-31T02:39:57.504Z,7.50
2022-10-31T02:43:35.475Z,7.60
2022-10-31T02:46:55.986Z,7.60
2022-10-31T02:50:28.268Z,7.50
2022-10-31T02:53:35.062Z,7.20
2022-10-31T02:56:36.550Z,7.30
2022-10-31T02:59:46.791Z,7.40
2022-10-31T03:03:15.689Z,7.30
2022-10-31T03:06:40.456Z,7.30
2022-10-31T03:09:59.727Z,7.30
2022-10-31T03:13:16.190Z,7.10
2022-10-31T03:16:48.253Z,7.10
2022-10-31T03:19:57.535Z,7.10
2022-10-31T03:23:04.205Z,7.20
2022-10-31T03:26:10.678Z,7.30
2022-10-31T03:29:18.976Z,7.40
2022-10-31T03:32:30.334Z,7.30
2022-10-31T03:35:34.434Z,7.40
2022-10-31T03:38:40.204Z,7.40
2022-10-31T03:41:48.029Z,7.30
2022-10-31T03:45:08.055Z,7.20
2022-10-31T03:48:09.543Z,7.20
2022-10-31T03:51:30.032Z,7.20
2022-10-31T03:54:36.865Z,7.20
2022-10-31T03:58:04.667Z,7.10
2022-10-31T04:01:12.711Z,7.00
2022-10-31T04:04:16.330Z,6.90
2022-10-31T04:07:19.514Z,6.70
2022-10-31T04:10:31.887Z,6.80
2022-10-31T04:13:38.454Z,7.00
2022-10-31T04:16:46.836Z,7.10
2022-10-31T04:19:47.610Z,7.10
2022-10-31T04:22:48.416Z,7.10
2022-10-31T04:25:49.225Z,7.00
2022-10-31T04:28:51.473Z,6.80
2022-10-31T04:31:52.676Z,6.80
2022-10-31T04:34:53.538Z,6.80
2022-10-31T04:37:54.650Z,6.90
2022-10-31T04:40:55.836Z,6.90
2022-10-31T04:44:19.101Z,7.00
2022-10-31T04:47:24.220Z,7.30
2022-10-31T04:50:25.599Z,7.10
2022-10-31T04:53:27.313Z,7.30
2022-10-31T04:57:00.698Z,7.40
2022-10-31T05:00:02.759Z,7.70
2022-10-31T05:03:04.659Z,7.90
2022-10-31T05:06:08.236Z,8.00
2022-10-31T05:09:10.812Z,8.20
2022-10-31T05:12:12.577Z,8.30
2022-10-31T05:15:51.600Z,8.50
2022-10-31T05:19:11.227Z,8.60
2022-10-31T05:22:30.332Z,8.70
2022-10-31T05:25:32.172Z,8.80
2022-10-31T05:28:37.308Z,8.90
2022-10-31T05:31:38.577Z,9.00
2022-10-31T05:34:41.824Z,9.00
2022-10-31T05:38:01.775Z,9.10
2022-10-31T05:41:02.753Z,9.10
2022-10-31T05:44:06.282Z,9.10
2022-10-31T05:47:14.511Z,9.20
2022-10-31T05:50:32.782Z,9.30
2022-10-31T05:53:43.085Z,9.30
2022-10-31T05:56:44.318Z,9.50
2022-10-31T05:59:45.066Z,9.50
2022-10-31T06:02:46.528Z,9.60
2022-10-31T06:05:52.527Z,9.60
2022-10-31T06:08:58.487Z,9.70
2022-10-31T06:12:00.690Z,9.70
2022-10-31T06:15:39.505Z,9.80
2022-10-31T06:18:42.675Z,9.60
2022-10-31T06:21:43.987Z,9.40
2022-10-31T06:24:44.743Z,9.20
2022-10-31T06:28:03.051Z,9.00
2022-10-31T06:31:13.402Z,9.10
2022-10-31T06:34:14.685Z,9.00
2022-10-31T06:37:17.080Z,8.80
2022-10-31T06:40:21.474Z,8.80
2022-10-31T06:43:42.607Z,8.90
2022-10-31T06:47:07.503Z,9.00
2022-10-31T06:50:24.710Z,9.20
2022-10-31T06:53:30.688Z,9.30
2022-10-31T06:56:32.155Z,9.20
2022-10-31T06:59:34.179Z,9.20
2022-10-31T07:03:05.035Z,9.00
2022-10-31T07:06:08.372Z,8.90
2022-10-31T07:09:09.714Z,9.10
2022-10-31T07:12:10.663Z,9.20
2022-10-31T07:15:15.242Z,9.40
2022-10-31T07:18:16.144Z,9.50
2022-10-31T07:21:17.326Z,9.40
2022-10-31T07:24:18.029Z,9.60
2022-10-31T07:27:42.840Z,9.70
2022-10-31T07:30:52.376Z,9.70
2022-10-31T07:33:55.662Z,9.60
2022-10-31T07:37:02.158Z,9.60
2022-10-31T07:40:06.685Z,9.60
2022-10-31T07:43:11.553Z,9.90
2022-10-31T07:46:31.565Z,9.90
2022-10-31T07:49:50.808Z,10.00
2022-10-31T07:53:12.847Z,10.10
2022-10-31T07:56:23.658Z,10.10
2022-10-31T07:59:24.389Z,10.30
2022-10-31T08:02:26.921Z,10.40
2022-10-31T08:05:50.452Z,10.50
2022-10-31T08:09:14.412Z,10.60
2022-10-31T08:12:16.959Z,10.60
2022-10-31T08:15:17.949Z,10.70
2022-10-31T08:18:19.054Z,10.70
2022-10-31T08:21:20.340Z,10.80
2022-10-31T08:24:23.398Z,10.80
2022-10-31T08:27:24.496Z,10.90
2022-10-31T08:30:32.072Z,10.90
2022-10-31T08:33:54.386Z,10.90
2022-10-31T08:37:27.564Z,10.80
2022-10-31T08:40:33.567Z,10.90
2022-10-31T08:43:37.674Z,10.70
2022-10-31T08:46:38.362Z,10.70
2022-10-31T08:49:39.202Z,11.10
2022-10-31T08:53:03.679Z,11.20
2022-10-31T08:56:01.744Z,11.10
2022-10-31T08:59:02.721Z,10.90
2022-10-31T09:02:17.999Z,10.90
2022-10-31T09:05:19.194Z,11.30
2022-10-31T09:08:20.139Z,11.30
2022-10-31T09:11:22.457Z,11.40
2022-10-31T09:14:49.530Z,11.50
2022-10-31T09:18:13.337Z,11.40
2022-10-31T09:21:34.638Z,11.40
2022-10-31T09:24:35.496Z,11.30
2022-10-31T09:27:36.737Z,11.40
2022-10-31T09:30:38.556Z,11.30
2022-10-31T09:33:39.641Z,11.70
2022-10-31T09:37:03.653Z,12.00
2022-10-31T09:40:05.755Z,11.80
2022-10-31T09:43:38.436Z,11.80
2022-10-31T09:47:03.497Z,11.60
2022-10-31T09:50:28.494Z,11.60
2022-10-31T09:53:58.687Z,11.80
2022-10-31T09:57:03.772Z,11.90
2022-10-31T10:00:08.698Z,11.70
2022-10-31T10:03:40.316Z,11.60
2022-10-31T10:07:15.104Z,11.80
2022-10-31T10:10:42.335Z,11.90
2022-10-31T10:14:39.940Z,12.30
2022-10-31T10:18:31.764Z,12.30
2022-10-31T10:22:07.898Z,12.30
2022-10-31T10:25:40.692Z,12.50
2022-10-31T10:28:48.447Z,13.10
2022-10-31T10:31:54.919Z,15.20
2022-10-31T10:35:39.498Z,15.20
2022-10-31T10:38:53.482Z,14.70
2022-10-31T10:42:16.919Z,15.00
2022-10-31T10:45:40.120Z,15.60
2022-10-31T10:49:20.850Z,15.00
2022-10-31T10:52:49.234Z,15.30
2022-10-31T10:56:17.884Z,15.80
2022-10-31T10:59:23.269Z,17.20
2022-10-31T11:02:28.680Z,16.60
2022-10-31T11:05:59.598Z,16.30
2022-10-31T11:09:11.687Z,16.20
2022-10-31T11:12:33.822Z,16.00
2022-10-31T11:16:03.757Z,15.70
2022-10-31T11:19:25.007Z,15.50
2022-10-31T11:22:26.057Z,15.30
2022-10-31T11:25:27.987Z,15.20
2022-10-31T11:28:33.328Z,15.20
2022-10-31T11:31:36.732Z,15.20
2022-10-31T11:34:46.348Z,14.90
2022-10-31T11:37:54.473Z,14.70
2022-10-31T11:41:01.190Z,14.80
2022-10-31T11:44:18.938Z,14.80
2022-10-31T11:47:29.900Z,14.90
2022-10-31T11:50:42.185Z,14.70
2022-10-31T11:53:58.190Z,14.70
2022-10-31T11:57:04.058Z,14.70
2022-10-31T12:00:22.874Z,14.80
2022-10-31T12:03:23.926Z,14.80
2022-10-31T12:06:38.066Z,15.00
2022-10-31T12:09:41.310Z,15.20
2022-10-31T12:13:11.065Z,15.30
2022-10-31T12:16:34.493Z,15.50
2022-10-31T12:20:01.841Z,15.40
2022-10-31T12:23:37.642Z,15.20
2022-10-31T12:26:50.100Z,14.80
2022-10-31T12:30:16.755Z,14.30
2022-10-31T12:33:45.626Z,14.10
2022-10-31T12:37:12.421Z,13.50
2022-10-31T12:40:48.597Z,13.70
2022-10-31T12:44:30.610Z,14.10
2022-10-31T12:47:37.136Z,14.10
2022-10-31T12:50:58.669Z,14.10
2022-10-31T12:54:09.342Z,14.60
2022-10-31T12:57:37.499Z,14.80
2022-10-31T13:00:45.515Z,15.70
2022-10-31T13:04:15.557Z,15.20
2022-10-31T13:08:21.464Z,14.80
2022-10-31T13:11:33.548Z,14.50
2022-10-31T13:14:45.953Z,15.10
2022-10-31T13:18:02.202Z,15.50
2022-10-31T13:21:13.949Z,15.90
2022-10-31T13:24:35.816Z,15.90
2022-10-31T13:27:55.970Z,16.70
2022-10-31T13:30:57.182Z,17.20
2022-10-31T13:34:10.053Z,17.80
2022-10-31T13:37:40.366Z,17.30
2022-10-31T13:41:07.595Z,17.30
2022-10-31T13:44:33.273Z,17.80
2022-10-31T13:47:37.538Z,18.10
2022-10-31T13:50:42.206Z,18.90
2022-10-31T13:54:00.704Z,18.90
2022-10-31T13:57:02.106Z,19.80
2022-10-31T14:00:27.803Z,20.20
2022-10-31T14:03:49.769Z,19.90
2022-10-31T14:07:13.393Z,20.70
2022-10-31T14:10:40.171Z,21.10
2022-10-31T14:13:47.184Z,21.30
2022-10-31T14:16:57.762Z,20.60
2022-10-31T14:20:25.218Z,20.70
2022-10-31T14:23:33.100Z,21.30
2022-10-31T14:26:37.345Z,20.40
2022-10-31T14:29:38.130Z,19.10
2022-10-31T14:32:39.039Z,19.10
2022-10-31T14:36:31.239Z,20.00
2022-10-31T14:39:52.135Z,19.10
2022-10-31T14:43:36.260Z,18.00
2022-10-31T14:47:07.094Z,18.00
2022-10-31T14:50:37.529Z,18.10
2022-10-31T14:53:50.680Z,19.20
2022-10-31T14:57:00.430Z,19.50
2022-10-31T15:00:09.797Z,16.90
2022-10-31T15:03:23.876Z,15.80
2022-10-31T15:06:27.031Z,15.10
2022-10-31T15:09:33.650Z,14.90
2022-10-31T15:12:39.542Z,15.20
2022-10-31T15:15:41.893Z,15.90
2022-10-31T15:19:01.895Z,16.40
2022-10-31T15:22:02.853Z,15.20
2022-10-31T15:25:04.537Z,14.90
2022-10-31T15:28:24.100Z,14.20
2022-10-31T15:31:24.943Z,14.00
2022-10-31T15:34:53.388Z,13.60
2022-10-31T15:37:54.729Z,13.40
2022-10-31T15:41:56.906Z,13.10
2022-10-31T15:45:13.182Z,12.80
2022-10-31T15:48:24.370Z,12.40
2022-10-31T15:51:33.787Z,12.00
2022-10-31T15:54:36.077Z,11.70
2022-10-31T15:57:50.077Z,11.50
2022-10-31T16:01:21.691Z,11.30
2022-10-31T16:04:27.276Z,11.30
2022-10-31T16:07:31.338Z,11.20
2022-10-31T16:10:36.475Z,11.10
2022-10-31T16:13:43.437Z,11.00
2022-10-31T16:16:50.788Z,10.90
2022-10-31T16:20:04.391Z,10.90
2022-10-31T16:23:05.499Z,10.80
2022-10-31T16:26:09.297Z,10.60
2022-10-31T16:29:46.649Z,10.50
2022-10-31T16:33:00.988Z,10.30
2022-10-31T16:36:34.399Z,10.30
2022-10-31T16:39:36.578Z,10.20
2022-10-31T16:42:37.358Z,10.10
2022-10-31T16:45:43.080Z,9.90
2022-10-31T16:48:44.235Z,9.90
2022-10-31T16:51:45.268Z,9.80
2022-10-31T16:54:46.306Z,9.80
2022-10-31T16:57:59.283Z,9.70
2022-10-31T17:01:02.894Z,9.80
2022-10-31T17:04:03.875Z,9.90
2022-10-31T17:07:04.650Z,9.60
2022-10-31T17:10:06.238Z,9.40
2022-10-31T17:13:15.634Z,9.50
2022-10-31T17:16:17.469Z,9.70
2022-10-31T17:19:18.602Z,9.70
2022-10-31T17:22:19.391Z,9.50
2022-10-31T17:25:25.072Z,9.60
2022-10-31T17:28:26.922Z,9.70
2022-10-31T17:31:32.174Z,9.70
2022-10-31T17:34:32.933Z,9.60
2022-10-31T17:37:33.822Z,9.60
2022-10-31T17:40:37.435Z,9.70
2022-10-31T17:43:39.131Z,9.80
2022-10-31T17:46:40.332Z,9.90
2022-10-31T17:49:41.124Z,9.70
2022-10-31T17:52:41.918Z,9.70
2022-10-31T17:55:42.831Z,9.70
2022-10-31T17:58:44.001Z,9.70
2022-10-31T18:01:45.226Z,9.70
2022-10-31T18:04:46.192Z,9.60
2022-10-31T18:07:51.278Z,9.50
2022-10-31T18:10:52.586Z,9.60
2022-10-31T18:13:58.849Z,9.70
2022-10-31T18:16:59.904Z,9.70
2022-10-31T18:20:00.786Z,9.70
2022-10-31T18:23:01.475Z,9.60
2022-10-31T18:26:02.425Z,9.60
2022-10-31T18:29:04.228Z,9.40
2022-10-31T18:32:09.531Z,9.40
2022-10-31T18:35:11.081Z,9.50
2022-10-31T18:38:12.156Z,9.40
2022-10-31T18:41:14.985Z,9.40
2022-10-31T18:44:15.923Z,9.40
2022-10-31T18:47:17.780Z,9.50
2022-10-31T18:50:19.137Z,9.40
2022-10-31T18:53:19.975Z,9.30
2022-10-31T18:56:22.073Z,9.30
2022-10-31T18:59:23.136Z,9.20
2022-10-31T19:02:24.167Z,9.30
2022-10-31T19:05:25.616Z,9.30
2022-10-31T19:11:47.922Z,9.00
2022-10-31T19:14:49.307Z,9.00
2022-10-31T19:17:50.813Z,9.20
2022-10-31T19:20:51.778Z,9.50
2022-10-31T19:23:56.486Z,9.40
2022-10-31T19:26:58.550Z,9.50
2022-10-31T19:30:01.267Z,9.50
2022-10-31T19:33:02.262Z,9.90
2022-10-31T19:36:11.380Z,10.30
2022-10-31T19:39:12.705Z,10.30
2022-10-31T19:42:13.830Z,10.30
2022-10-31T19:45:14.755Z,10.00
2022-10-31T19:48:17.137Z,9.80
2022-10-31T19:51:21.708Z,9.80
2022-10-31T19:54:23.159Z,9.80
2022-10-31T19:57:48.477Z,9.80
2022-10-31T20:00:45.355Z,9.80
2022-10-31T20:03:47.261Z,9.80
2022-10-31T20:06:48.520Z,9.90
2022-10-31T20:09:49.502Z,9.70
2022-10-31T20:12:50.221Z,9.60
2022-10-31T20:15:52.613Z,9.50
2022-10-31T20:18:54.304Z,9.70
2022-10-31T20:21:55.263Z,9.60
2022-10-31T20:24:56.601Z,9.70
2022-10-31T20:27:57.346Z,9.60
2022-10-31T20:31:00.379Z,9.60
2022-10-31T20:34:01.375Z,9.50
2022-10-31T20:37:02.137Z,9.60
2022-10-31T20:40:03.851Z,9.60
2022-10-31T20:43:05.932Z,9.40
2022-10-31T20:46:19.713Z,9.70
2022-10-31T20:49:20.556Z,10.10
2022-10-31T20:52:21.251Z,10.00
2022-10-31T20:55:22.214Z,10.00
2022-10-31T20:58:22.925Z,10.10
2022-10-31T21:01:31.332Z,10.10
2022-10-31T21:04:32.599Z,10.10
2022-10-31T21:07:33.225Z,10.00
2022-10-31T21:10:34.102Z,10.10
2022-10-31T21:13:41.424Z,10.30
2022-10-31T21:16:42.648Z,10.30
2022-10-31T21:19:43.484Z,10.10
2022-10-31T21:22:44.261Z,10.00
2022-10-31T21:25:45.777Z,10.00
2022-10-31T21:28:47.214Z,9.90
2022-10-31T21:31:48.806Z,9.60
2022-10-31T21:34:50.513Z,9.30
2022-10-31T21:37:51.608Z,9.10
2022-10-31T21:41:03.258Z,9.00
2022-10-31T21:44:05.151Z,9.00
2022-10-31T21:47:06.051Z,9.00
2022-10-31T21:50:07.979Z,8.90
2022-10-31T21:53:27.766Z,9.00
2022-10-31T21:56:29.707Z,8.70
2022-10-31T21:59:31.179Z,8.60
2022-10-31T22:02:32.046Z,9.00
2022-10-31T22:05:35.007Z,8.60
2022-10-31T22:08:36.446Z,8.40
2022-10-31T22:11:37.547Z,8.50
2022-10-31T22:14:38.721Z,8.50
2022-10-31T22:17:39.513Z,8.70
2022-10-31T22:20:40.163Z,8.70
2022-10-31T22:23:42.736Z,8.70
2022-10-31T22:26:44.402Z,8.60
2022-10-31T22:29:45.316Z,8.90
2022-10-31T22:32:46.493Z,8.90
2022-10-31T22:35:47.217Z,9.00
2022-10-31T22:38:49.307Z,8.90
2022-10-31T22:41:49.989Z,8.80
2022-10-31T22:44:51.360Z,8.80
2022-10-31T22:47:52.624Z,8.70
2022-10-31T22:50:54.017Z,8.80
2022-10-31T22:53:57.979Z,8.80
2022-10-31T22:56:58.897Z,8.90
2022-10-31T22:59:59.630Z,8.80
2022-10-31T23:03:00.431Z,8.60
2022-10-31T23:06:03.995Z,8.50
2022-10-31T23:09:07.406Z,8.50
2022-10-31T23:12:26.810Z,8.50
2022-10-31T23:15:28.089Z,8.50
2022-10-31T23:18:49.112Z,8.50
2022-10-31T23:22:05.065Z,8.40
2022-10-31T23:25:06.638Z,8.30
2022-10-31T23:28:07.476Z,8.40
2022-10-31T23:31:08.312Z,8.30
2022-10-31T23:34:09.022Z,8.30
2022-10-31T23:37:10.423Z,8.20
2022-10-31T23:40:12.722Z,8.10
2022-10-31T23:43:13.918Z,8.10
2022-10-31T23:46:14.675Z,8.10
2022-10-31T23:49:15.477Z,8.10
2022-10-31T23:52:16.911Z,8.20
2022-10-31T23:55:17.555Z,8.20
2022-10-31T23:58:18.373Z,8.10
